createdAt,value
2023-05-15T00:00:10.756Z,2.28
2023-05-15T00:05:18.296Z,2.55
2023-05-15T00:10:17.329Z,2.63
2023-05-15T00:15:16.131Z,2.80
2023-05-15T00:20:15.104Z,3.05
2023-05-15T00:25:13.832Z,2.95
2023-05-15T00:30:14.155Z,3.38
2023-05-15T00:35:13.136Z,3.28
2023-05-15T00:40:15.264Z,5.32
2023-05-15T00:45:15.156Z,5.25
2023-05-15T00:50:15.025Z,3.92
2023-05-15T00:55:16.445Z,3.35
2023-05-15T01:00:18.389Z,3.13
2023-05-15T01:05:17.268Z,2.90
2023-05-15T01:10:17.829Z,3.10
2023-05-15T01:15:16.704Z,2.90
2023-05-15T01:20:19.058Z,2.97
2023-05-15T01:25:33.029Z,2.80
2023-05-15T01:30:38.553Z,2.80
2023-05-15T01:35:56.150Z,2.55
2023-05-15T01:41:06.424Z,2.88
2023-05-15T01:46:07.245Z,2.65
2023-05-15T01:51:07.888Z,2.80
2023-05-15T01:56:10.002Z,2.85
2023-05-15T02:01:10.862Z,3.10
2023-05-15T02:06:10.132Z,3.78
2023-05-15T02:11:09.988Z,3.40
2023-05-15T02:16:09.879Z,3.25
2023-05-15T02:21:08.846Z,3.67
2023-05-15T02:26:45.342Z,3.88
2023-05-15T02:31:52.790Z,3.47
2023-05-15T02:36:53.235Z,3.35
2023-05-15T02:41:53.723Z,3.65
2023-05-15T02:46:54.243Z,3.22
2023-05-15T02:51:53.119Z,3.97
2023-05-15T02:56:51.941Z,4.30
2023-05-15T03:01:50.781Z,4.35
2023-05-15T03:06:49.732Z,3.90
2023-05-15T03:11:57.116Z,4.60
2023-05-15T03:16:57.474Z,4.07
2023-05-15T03:21:56.480Z,4.35
2023-05-15T03:26:55.429Z,3.90
2023-05-15T03:31:54.432Z,3.90
2023-05-15T03:36:53.554Z,3.70
2023-05-15T03:41:52.351Z,4.10
2023-05-15T03:46:54.534Z,3.95
2023-05-15T03:51:56.667Z,3.67
2023-05-15T03:56:55.912Z,3.63
2023-05-15T04:07:02.396Z,3.67
2023-05-15T04:12:01.152Z,3.28
2023-05-15T04:17:00.021Z,3.58
2023-05-15T04:21:58.779Z,3.90
2023-05-15T04:26:57.647Z,2.60
2023-05-15T04:31:56.708Z,3.05
2023-05-15T04:36:55.892Z,2.88
2023-05-15T04:41:54.784Z,4.38
2023-05-15T04:46:53.639Z,3.08
2023-05-15T04:51:52.477Z,3.15
2023-05-15T04:56:51.297Z,2.92
2023-05-15T05:01:51.201Z,2.75
2023-05-15T05:06:50.327Z,3.17
2023-05-15T05:11:49.108Z,2.88
2023-05-15T05:16:47.889Z,3.65
2023-05-15T05:21:47.847Z,3.72
2023-05-15T05:26:46.833Z,3.33
2023-05-15T05:31:49.855Z,3.47
2023-05-15T05:41:47.867Z,4.15
2023-05-15T05:46:46.821Z,4.03
2023-05-15T05:51:47.117Z,4.18
2023-05-15T05:56:46.424Z,4.65
2023-05-15T06:01:45.291Z,4.63
2023-05-15T06:06:45.269Z,4.50
2023-05-15T06:11:44.235Z,5.05
2023-05-15T06:16:44.059Z,5.05
2023-05-15T06:21:43.193Z,5.00
2023-05-15T06:26:42.047Z,4.40
2023-05-15T06:31:41.064Z,4.25
2023-05-15T06:36:39.844Z,4.45
2023-05-15T06:41:38.796Z,4.47
2023-05-15T06:46:40.788Z,3.92
2023-05-15T06:51:39.550Z,4.00
2023-05-15T06:56:38.451Z,4.65
2023-05-15T07:01:38.381Z,4.18
2023-05-15T07:06:37.721Z,4.25
2023-05-15T07:11:39.057Z,4.85
2023-05-15T07:16:38.114Z,4.90
2023-05-15T07:21:37.417Z,4.32
2023-05-15T07:26:46.647Z,4.50
2023-05-15T07:31:55.998Z,4.70
2023-05-15T07:36:54.975Z,4.45
2023-05-15T07:41:59.198Z,4.90
2023-05-15T07:47:00.380Z,4.90
2023-05-15T07:51:59.367Z,4.28
2023-05-15T07:56:58.750Z,4.30
2023-05-15T08:01:57.696Z,4.95
2023-05-15T08:06:56.951Z,4.68
2023-05-15T08:11:56.226Z,5.75
2023-05-15T08:16:55.057Z,5.20
2023-05-15T08:21:53.921Z,5.28
2023-05-15T08:26:52.845Z,6.10
2023-05-15T08:31:52.150Z,5.43
2023-05-15T08:36:52.509Z,5.40
2023-05-15T08:41:58.347Z,5.57
2023-05-15T08:46:58.239Z,5.35
2023-05-15T08:51:57.485Z,6.15
2023-05-15T08:56:57.008Z,6.40
2023-05-15T09:01:57.103Z,5.25
2023-05-15T09:06:57.033Z,5.40
2023-05-15T09:11:55.972Z,5.75
2023-05-15T09:16:54.828Z,5.05
2023-05-15T09:21:53.763Z,5.60
2023-05-15T09:27:06.956Z,5.35
2023-05-15T09:32:10.814Z,6.03
2023-05-15T09:37:13.280Z,5.53
2023-05-15T09:42:14.916Z,5.88
2023-05-15T09:47:14.584Z,5.60
2023-05-15T09:52:16.214Z,6.60
2023-05-15T09:57:15.214Z,6.75
2023-05-15T10:02:32.773Z,6.35
2023-05-15T10:07:36.590Z,6.38
2023-05-15T10:12:36.735Z,5.97
2023-05-15T10:17:37.121Z,6.38
2023-05-15T10:22:42.170Z,5.75
2023-05-15T10:27:42.657Z,5.75
2023-05-15T10:32:43.368Z,5.97
2023-05-15T10:37:44.069Z,5.75
2023-05-15T10:42:45.940Z,5.60
2023-05-15T10:47:45.788Z,5.43
2023-05-15T10:52:44.832Z,5.55
2023-05-15T10:57:47.973Z,5.50
2023-05-15T11:02:46.730Z,5.35
2023-05-15T11:08:26.416Z,5.93
2023-05-15T11:13:25.348Z,5.63
2023-05-15T11:18:25.654Z,6.13
2023-05-15T11:23:25.649Z,5.85
2023-05-15T11:28:29.297Z,5.32
2023-05-15T11:33:31.617Z,5.78
2023-05-15T11:38:37.813Z,5.30
2023-05-15T11:43:36.652Z,5.25
2023-05-15T11:48:47.872Z,6.28
2023-05-15T11:53:47.696Z,5.50
2023-05-15T11:58:50.858Z,5.68
2023-05-15T12:03:51.362Z,5.38
2023-05-15T12:08:56.634Z,6.57
2023-05-15T12:13:55.517Z,7.15
2023-05-15T12:18:57.381Z,6.60
2023-05-15T12:24:07.022Z,6.57
2023-05-15T12:29:07.575Z,7.63
2023-05-15T12:34:08.013Z,7.57
2023-05-15T12:39:08.159Z,8.77
2023-05-15T12:44:06.979Z,8.80
2023-05-15T12:49:05.832Z,7.68
2023-05-15T12:54:04.763Z,8.15
2023-05-15T12:59:04.460Z,7.88
2023-05-15T13:04:03.902Z,7.93
2023-05-15T13:09:02.847Z,8.23
2023-05-15T13:14:08.387Z,7.50
2023-05-15T13:19:09.734Z,6.78
2023-05-15T13:24:12.757Z,5.53
2023-05-15T13:29:12.136Z,6.55
2023-05-15T13:34:10.960Z,7.65
2023-05-15T13:39:09.732Z,5.97
2023-05-15T13:44:08.523Z,5.60
2023-05-15T13:49:07.795Z,5.53
2023-05-15T13:54:06.585Z,5.97
2023-05-15T13:59:05.451Z,4.93
2023-05-15T14:04:04.507Z,5.82
2023-05-15T14:09:03.615Z,5.82
2023-05-15T14:14:02.460Z,6.18
2023-05-15T14:19:01.208Z,6.22
2023-05-15T14:24:00.235Z,6.43
2023-05-15T14:28:59.246Z,6.75
2023-05-15T14:33:58.119Z,6.10
2023-05-15T14:38:59.701Z,6.82
2023-05-15T14:43:59.194Z,6.30
2023-05-15T14:48:58.100Z,5.93
2023-05-15T14:53:57.207Z,6.63
2023-05-15T14:58:56.105Z,6.50
2023-05-15T15:03:55.100Z,7.00
2023-05-15T15:08:54.242Z,6.13
2023-05-15T15:13:53.004Z,6.15
2023-05-15T15:18:51.993Z,6.45
2023-05-15T15:23:51.151Z,5.72
2023-05-15T15:28:49.897Z,5.75
2023-05-15T15:33:48.746Z,6.20
2023-05-15T15:38:47.798Z,6.22
2023-05-15T15:43:46.606Z,5.57
2023-05-15T15:48:45.513Z,5.68
2023-05-15T15:53:44.548Z,5.70
2023-05-15T15:58:43.471Z,5.70
2023-05-15T16:03:42.868Z,4.82
2023-05-15T16:08:41.780Z,6.25
2023-05-15T16:13:41.246Z,6.47
2023-05-15T16:18:40.206Z,6.82
2023-05-15T16:23:43.123Z,6.95
2023-05-15T16:28:41.890Z,6.72
2023-05-15T16:33:40.920Z,7.53
2023-05-15T16:38:39.950Z,6.95
2023-05-15T16:43:38.876Z,7.82
2023-05-15T16:48:38.187Z,8.98
2023-05-15T16:53:37.018Z,9.20
2023-05-15T16:58:35.848Z,7.47
2023-05-15T17:03:34.759Z,7.30
2023-05-15T17:08:34.740Z,8.38
2023-05-15T17:13:33.534Z,5.65
2023-05-15T17:18:32.556Z,6.32
2023-05-15T17:23:31.529Z,7.93
2023-05-15T17:28:30.305Z,7.28
2023-05-15T17:33:29.141Z,8.90
2023-05-15T17:38:28.084Z,8.65
2023-05-15T17:43:26.858Z,9.02
2023-05-15T17:48:25.862Z,7.85
2023-05-15T17:53:24.933Z,7.55
2023-05-15T17:58:23.903Z,7.50
2023-05-15T18:03:22.825Z,7.97
2023-05-15T18:08:21.784Z,7.50
2023-05-15T18:13:20.793Z,9.15
2023-05-15T18:18:19.601Z,8.85
2023-05-15T18:23:19.975Z,8.43
2023-05-15T18:28:18.774Z,9.25
2023-05-15T18:33:17.696Z,6.93
2023-05-15T18:38:16.518Z,7.88
2023-05-15T18:43:15.451Z,7.53
2023-05-15T18:48:14.728Z,6.43
2023-05-15T18:53:13.477Z,5.70
2023-05-15T18:58:12.300Z,6.32
2023-05-15T19:03:11.285Z,6.40
2023-05-15T19:08:10.221Z,6.80
2023-05-15T19:13:08.997Z,6.63
2023-05-15T19:18:07.896Z,6.97
2023-05-15T19:23:08.773Z,7.13
2023-05-15T19:28:08.541Z,7.38
2023-05-15T19:33:07.477Z,7.28
2023-05-15T19:38:06.532Z,6.80
2023-05-15T19:43:05.406Z,7.15
2023-05-15T19:48:04.586Z,7.65
2023-05-15T19:53:03.426Z,7.32
2023-05-15T19:58:02.493Z,7.97
2023-05-15T20:03:01.464Z,8.68
2023-05-15T20:08:00.371Z,8.73
2023-05-15T20:12:59.530Z,9.13
2023-05-15T20:17:58.473Z,4.32
2023-05-15T20:22:57.410Z,8.20
2023-05-15T20:27:58.548Z,8.40
2023-05-15T20:32:57.622Z,9.68
2023-05-15T20:37:57.501Z,8.75
2023-05-15T20:42:57.126Z,9.57
2023-05-15T20:47:55.908Z,11.13
2023-05-15T20:52:54.858Z,9.82
2023-05-15T20:57:53.752Z,11.85
2023-05-15T21:02:52.773Z,10.52
2023-05-15T21:07:51.722Z,10.25
2023-05-15T21:12:51.021Z,7.28
2023-05-15T21:17:49.829Z,6.65
2023-05-15T21:22:48.724Z,6.80
2023-05-15T21:27:47.530Z,7.15
2023-05-15T21:32:46.328Z,5.97
2023-05-15T21:37:45.087Z,6.47
2023-05-15T21:42:44.122Z,6.22
2023-05-15T21:47:42.925Z,6.78
2023-05-15T21:52:42.011Z,6.03
2023-05-15T21:57:40.825Z,5.70
2023-05-15T22:02:39.762Z,6.65
2023-05-15T22:07:38.711Z,5.28
2023-05-15T22:12:37.642Z,5.72
2023-05-15T22:17:37.112Z,6.30
2023-05-15T22:22:36.039Z,5.90
2023-05-15T22:27:35.294Z,5.72
2023-05-15T22:32:34.504Z,5.53
2023-05-15T22:37:33.340Z,6.03
2023-05-15T22:42:32.546Z,5.88
2023-05-15T22:47:31.524Z,5.90
2023-05-15T22:52:30.325Z,5.75
2023-05-15T22:57:29.136Z,6.25
2023-05-15T23:02:27.949Z,6.28
2023-05-15T23:07:26.741Z,6.50
2023-05-15T23:12:25.790Z,6.63
2023-05-15T23:17:26.398Z,6.30
2023-05-15T23:22:25.631Z,6.82
2023-05-15T23:27:24.439Z,6.85
2023-05-15T23:32:23.248Z,6.90
2023-05-15T23:37:22.084Z,6.65
2023-05-15T23:42:22.782Z,6.75
2023-05-15T23:47:21.576Z,6.60
2023-05-15T23:52:20.430Z,7.10
2023-05-15T23:57:19.577Z,7.70
